createdAt,value
2022-10-21T00:00:14.437Z,13.07
2022-10-21T00:02:19.569Z,14.20
2022-10-21T00:04:22.303Z,15.50
2022-10-21T00:06:25.212Z,15.90
2022-10-21T00:08:29.639Z,18.00
2022-10-21T00:10:32.547Z,16.23
2022-10-21T00:12:35.858Z,20.13
2022-10-21T00:14:38.874Z,16.27
2022-10-21T00:16:41.627Z,20.40
2022-10-21T00:18:48.796Z,18.63
2022-10-21T00:20:51.573Z,18.40
2022-10-21T00:22:54.314Z,18.73
2022-10-21T00:24:58.681Z,18.10
2022-10-21T00:27:03.101Z,16.13
2022-10-21T00:29:05.875Z,20.33
2022-10-21T00:31:09.921Z,17.70
2022-10-21T00:33:13.120Z,14.77
2022-10-21T00:35:17.126Z,17.23
2022-10-21T00:37:19.895Z,22.43
2022-10-21T00:39:22.665Z,19.50
2022-10-21T00:41:26.865Z,19.67
2022-10-21T00:43:29.754Z,19.93
2022-10-21T00:45:32.712Z,19.87
2022-10-21T00:47:43.415Z,36.03
2022-10-21T00:49:55.698Z,25.13
2022-10-21T00:52:01.234Z,20.10
2022-10-21T00:54:04.490Z,17.23
2022-10-21T00:56:15.517Z,16.87
2022-10-21T00:58:23.560Z,17.90
2022-10-21T01:00:26.368Z,15.10
2022-10-21T01:02:30.681Z,18.13
2022-10-21T01:04:33.487Z,19.07
2022-10-21T01:06:37.214Z,17.93
2022-10-21T01:08:41.055Z,19.97
2022-10-21T01:10:44.891Z,16.17
2022-10-21T01:13:01.646Z,16.87
2022-10-21T01:15:16.948Z,15.97
2022-10-21T01:17:44.153Z,17.13
2022-10-21T01:20:26.047Z,17.20
2022-10-21T01:22:51.494Z,19.47
2022-10-21T01:25:26.232Z,13.73
2022-10-21T01:27:43.501Z,13.03
2022-10-21T01:30:12.063Z,19.77
2022-10-21T01:32:23.425Z,17.03
2022-10-21T01:34:33.478Z,17.90
2022-10-21T01:36:43.262Z,15.97
2022-10-21T01:38:59.817Z,21.57
2022-10-21T01:41:09.949Z,16.97
2022-10-21T01:43:22.019Z,20.03
2022-10-21T01:45:33.662Z,15.47
2022-10-21T01:47:42.059Z,16.57
2022-10-21T01:49:49.987Z,17.73
2022-10-21T01:51:55.033Z,18.97
2022-10-21T01:54:03.853Z,17.90
2022-10-21T01:56:10.071Z,16.43
2022-10-21T01:58:18.473Z,17.40
2022-10-21T02:00:21.680Z,19.00
2022-10-21T02:02:29.330Z,18.47
2022-10-21T02:04:36.014Z,19.87
2022-10-21T02:06:39.015Z,17.57
2022-10-21T02:08:42.206Z,14.93
2022-10-21T02:10:48.456Z,15.23
2022-10-21T02:12:54.707Z,16.20
2022-10-21T02:15:01.163Z,14.87
2022-10-21T02:17:05.585Z,14.43
2022-10-21T02:19:15.767Z,14.37
2022-10-21T02:21:24.364Z,17.17
2022-10-21T02:23:34.783Z,15.27
2022-10-21T02:25:41.800Z,18.03
2022-10-21T02:27:45.112Z,13.40
2022-10-21T02:29:50.498Z,16.37
2022-10-21T02:32:09.968Z,15.47
2022-10-21T02:34:21.617Z,16.77
2022-10-21T02:36:36.015Z,14.90
2022-10-21T02:38:43.395Z,17.33
2022-10-21T02:40:51.186Z,16.97
2022-10-21T02:42:59.051Z,14.00
2022-10-21T02:45:03.434Z,14.40
2022-10-21T02:47:06.542Z,15.40
2022-10-21T02:49:10.085Z,15.87
2022-10-21T02:51:13.491Z,15.63
2022-10-21T02:53:17.661Z,13.73
2022-10-21T02:55:20.353Z,13.67
2022-10-21T02:57:23.167Z,14.33
2022-10-21T02:59:26.133Z,14.30
2022-10-21T03:01:29.000Z,13.50
2022-10-21T03:03:31.866Z,14.00
2022-10-21T03:05:34.649Z,14.73
2022-10-21T03:07:37.633Z,11.80
2022-10-21T03:09:42.175Z,11.97
2022-10-21T03:11:44.911Z,12.90
2022-10-21T03:13:47.649Z,14.47
2022-10-21T03:15:50.792Z,11.83
2022-10-21T03:17:53.530Z,13.87
2022-10-21T03:19:56.274Z,12.40
2022-10-21T03:21:59.102Z,12.63
2022-10-21T03:24:02.213Z,11.93
2022-10-21T03:26:06.663Z,12.43
2022-10-21T03:28:09.572Z,11.93
2022-10-21T03:30:12.601Z,14.07
2022-10-21T03:32:15.314Z,12.50
2022-10-21T03:34:18.415Z,13.73
2022-10-21T03:36:21.661Z,13.57
2022-10-21T03:38:24.366Z,14.40
2022-10-21T03:40:30.044Z,12.90
2022-10-21T03:42:34.185Z,14.03
2022-10-21T03:44:36.955Z,15.70
2022-10-21T03:46:39.693Z,14.00
2022-10-21T03:48:42.399Z,15.07
2022-10-21T03:50:45.096Z,12.13
2022-10-21T03:52:47.843Z,16.03
2022-10-21T03:54:50.526Z,13.30
2022-10-21T03:56:53.590Z,14.13
2022-10-21T03:58:58.764Z,18.57
2022-10-21T04:01:01.639Z,12.70
2022-10-21T04:03:04.559Z,16.53
2022-10-21T04:05:08.549Z,12.63
2022-10-21T04:07:11.398Z,13.50
2022-10-21T04:09:14.422Z,16.10
2022-10-21T04:11:17.630Z,13.57
2022-10-21T04:13:20.386Z,12.80
2022-10-21T04:15:24.558Z,15.37
2022-10-21T04:17:27.511Z,19.20
2022-10-21T04:19:30.390Z,12.87
2022-10-21T04:21:33.578Z,13.77
2022-10-21T04:23:37.179Z,11.63
2022-10-21T04:25:39.987Z,11.73
2022-10-21T04:27:42.771Z,18.40
2022-10-21T04:29:45.526Z,22.33
2022-10-21T04:31:49.692Z,22.73
2022-10-21T04:33:52.860Z,19.77
2022-10-21T04:35:56.015Z,20.60
2022-10-21T04:38:00.523Z,12.90
2022-10-21T04:40:03.272Z,13.37
2022-10-21T04:42:06.079Z,12.60
2022-10-21T04:44:08.870Z,14.60
2022-10-21T04:46:14.063Z,12.37
2022-10-21T04:48:18.505Z,13.23
2022-10-21T04:50:21.415Z,12.20
2022-10-21T04:52:24.162Z,15.47
2022-10-21T04:54:26.921Z,12.53
2022-10-21T04:56:29.654Z,12.77
2022-10-21T04:58:32.814Z,12.13
2022-10-21T05:00:35.945Z,13.53
2022-10-21T05:02:39.717Z,16.87
2022-10-21T05:04:43.987Z,12.37
2022-10-21T05:06:46.744Z,12.67
2022-10-21T05:08:49.568Z,12.47
2022-10-21T05:10:58.380Z,12.63
2022-10-21T05:13:01.101Z,8.30
2022-10-21T05:15:04.337Z,12.20
2022-10-21T05:17:07.049Z,10.90
2022-10-21T05:19:09.874Z,10.13
2022-10-21T05:21:13.934Z,12.23
2022-10-21T05:23:16.651Z,14.67
2022-10-21T05:25:19.521Z,10.93
2022-10-21T05:27:22.217Z,11.77
2022-10-21T05:29:24.874Z,12.90
2022-10-21T05:31:27.951Z,11.30
2022-10-21T05:33:30.659Z,11.57
2022-10-21T05:35:33.522Z,18.93
2022-10-21T05:37:37.990Z,13.67
2022-10-21T05:41:47.084Z,11.10
2022-10-21T05:43:50.862Z,11.30
2022-10-21T05:45:53.569Z,14.00
2022-10-21T05:47:56.499Z,12.00
2022-10-21T05:49:59.402Z,15.40
2022-10-21T05:52:02.654Z,20.10
2022-10-21T05:54:06.730Z,19.27
2022-10-21T05:56:10.090Z,22.13
2022-10-21T05:58:12.993Z,21.90
2022-10-21T06:00:16.373Z,27.87
2022-10-21T06:02:19.144Z,21.37
2022-10-21T06:04:21.889Z,19.50
2022-10-21T06:06:24.653Z,17.07
2022-10-21T06:08:28.259Z,15.53
2022-10-21T06:10:32.817Z,14.00
2022-10-21T06:12:35.552Z,14.90
2022-10-21T06:14:38.303Z,16.00
2022-10-21T06:16:41.035Z,12.13
2022-10-21T06:18:44.341Z,10.33
2022-10-21T06:20:48.223Z,12.97
2022-10-21T06:22:51.046Z,11.93
2022-10-21T06:24:53.805Z,11.60
2022-10-21T06:26:58.609Z,15.43
2022-10-21T06:29:01.278Z,11.70
2022-10-21T06:31:04.439Z,9.40
2022-10-21T06:33:07.532Z,12.97
2022-10-21T06:35:10.385Z,10.53
2022-10-21T06:37:13.073Z,11.40
2022-10-21T06:39:16.007Z,11.77
2022-10-21T06:41:19.055Z,10.80
2022-10-21T06:43:23.465Z,12.80
2022-10-21T06:45:26.256Z,10.63
2022-10-21T06:47:28.962Z,13.77
2022-10-21T06:49:31.726Z,16.77
2022-10-21T06:51:34.498Z,21.67
2022-10-21T06:53:39.360Z,24.03
2022-10-21T06:55:42.443Z,20.67
2022-10-21T06:57:45.373Z,17.83
2022-10-21T06:59:50.518Z,14.57
2022-10-21T07:02:00.070Z,9.57
2022-10-21T07:04:03.626Z,15.67
2022-10-21T07:06:06.846Z,20.83
2022-10-21T07:08:12.063Z,16.37
2022-10-21T07:10:15.779Z,12.13
2022-10-21T07:12:18.934Z,13.57
2022-10-21T07:14:21.866Z,13.30
2022-10-21T07:16:28.069Z,12.33
2022-10-21T07:18:31.249Z,26.60
2022-10-21T07:20:34.918Z,24.17
2022-10-21T07:22:37.667Z,12.40
2022-10-21T07:24:40.381Z,11.13
2022-10-21T07:26:43.306Z,12.10
2022-10-21T07:28:47.661Z,11.30
2022-10-21T07:30:50.758Z,13.57
2022-10-21T07:32:54.986Z,26.10
2022-10-21T07:34:57.796Z,27.97
2022-10-21T07:37:00.596Z,15.83
2022-10-21T07:39:06.470Z,15.47
2022-10-21T07:41:09.294Z,14.37
2022-10-21T07:45:20.572Z,13.23
2022-10-21T07:47:23.435Z,15.27
2022-10-21T07:49:27.547Z,14.77
2022-10-21T07:51:31.441Z,19.40
2022-10-21T07:53:34.441Z,17.83
2022-10-21T07:55:37.230Z,18.40
2022-10-21T07:57:40.044Z,17.00
2022-10-21T07:59:42.723Z,12.70
2022-10-21T08:01:47.333Z,10.97
2022-10-21T08:03:50.469Z,12.37
2022-10-21T08:05:55.125Z,11.53
2022-10-21T08:07:58.845Z,8.87
2022-10-21T08:10:01.808Z,13.17
2022-10-21T08:12:04.917Z,13.33
2022-10-21T08:14:08.922Z,10.40
2022-10-21T08:16:11.764Z,13.37
2022-10-21T08:18:15.120Z,10.73
2022-10-21T08:20:18.295Z,15.53
2022-10-21T08:22:22.508Z,13.70
2022-10-21T08:24:25.467Z,16.40
2022-10-21T08:26:28.434Z,13.67
2022-10-21T08:28:32.538Z,14.43
2022-10-21T08:30:35.345Z,14.00
2022-10-21T08:32:38.396Z,15.27
2022-10-21T08:34:41.441Z,15.97
2022-10-21T08:36:44.411Z,16.83
2022-10-21T08:38:49.521Z,18.37
2022-10-21T08:40:55.024Z,15.20
2022-10-21T08:43:08.926Z,16.03
2022-10-21T08:45:17.148Z,14.07
2022-10-21T08:47:27.313Z,15.10
2022-10-21T08:49:36.913Z,13.17
2022-10-21T08:51:44.504Z,17.50
2022-10-21T08:53:52.051Z,16.50
2022-10-21T08:55:59.823Z,15.70
2022-10-21T08:58:03.833Z,11.20
2022-10-21T09:00:15.255Z,12.40
2022-10-21T09:02:32.986Z,11.43
2022-10-21T09:04:44.794Z,11.60
2022-10-21T09:06:54.764Z,14.63
2022-10-21T09:09:07.471Z,14.07
2022-10-21T09:11:20.436Z,9.00
2022-10-21T09:13:36.763Z,9.93
2022-10-21T09:15:52.046Z,10.27
2022-10-21T09:18:08.684Z,7.07
2022-10-21T09:20:22.698Z,9.33
2022-10-21T09:22:40.963Z,7.57
2022-10-21T09:24:52.493Z,6.70
2022-10-21T09:26:57.261Z,8.30
2022-10-21T09:29:02.268Z,7.73
2022-10-21T09:31:14.675Z,6.97
2022-10-21T09:33:24.405Z,7.73
2022-10-21T09:35:34.684Z,6.50
2022-10-21T09:37:42.671Z,8.83
2022-10-21T09:39:52.354Z,9.10
2022-10-21T09:42:01.661Z,8.20
2022-10-21T09:44:14.203Z,12.87
2022-10-21T09:46:17.966Z,8.60
2022-10-21T09:48:35.523Z,7.47
2022-10-21T09:50:48.067Z,10.17
2022-10-21T09:52:57.667Z,8.10
2022-10-21T09:55:01.831Z,10.30
2022-10-21T09:57:13.541Z,10.13
2022-10-21T09:59:19.236Z,9.43
2022-10-21T10:01:23.311Z,8.07
2022-10-21T10:03:34.859Z,9.33
2022-10-21T10:05:41.387Z,6.83
2022-10-21T10:07:44.232Z,5.23
2022-10-21T10:09:48.848Z,5.27
2022-10-21T10:11:55.845Z,6.43
2022-10-21T10:13:58.651Z,6.03
2022-10-21T10:16:15.839Z,7.17
2022-10-21T10:18:23.097Z,5.60
2022-10-21T10:20:25.831Z,4.10
2022-10-21T10:22:28.639Z,4.50
2022-10-21T10:24:33.098Z,5.43
2022-10-21T10:26:38.392Z,7.07
2022-10-21T10:28:49.117Z,2.97
2022-10-21T10:30:55.197Z,3.97
2022-10-21T10:32:58.367Z,2.47
2022-10-21T10:35:04.505Z,2.47
2022-10-21T10:37:15.450Z,5.60
2022-10-21T10:39:24.521Z,2.30
2022-10-21T10:41:34.022Z,4.97
2022-10-21T10:43:42.891Z,3.07
2022-10-21T10:45:54.750Z,4.20
2022-10-21T10:48:00.605Z,3.37
2022-10-21T10:50:03.387Z,3.80
2022-10-21T10:52:17.039Z,2.73
2022-10-21T10:54:22.543Z,2.93
2022-10-21T10:56:29.704Z,3.27
2022-10-21T10:58:36.436Z,3.23
2022-10-21T11:00:44.666Z,3.67
2022-10-21T11:02:58.372Z,4.00
2022-10-21T11:05:24.619Z,4.37
2022-10-21T11:07:38.728Z,2.93
2022-10-21T11:09:42.001Z,4.30
2022-10-21T11:11:47.381Z,2.87
2022-10-21T11:13:50.737Z,2.17
2022-10-21T11:16:11.571Z,3.47
2022-10-21T11:18:25.454Z,1.93
2022-10-21T11:20:35.329Z,2.97
2022-10-21T11:22:46.160Z,3.57
2022-10-21T11:24:57.618Z,2.43
2022-10-21T11:27:05.562Z,1.83
2022-10-21T11:29:25.398Z,3.53
2022-10-21T11:31:43.891Z,2.43
2022-10-21T11:34:00.103Z,2.80
2022-10-21T11:36:12.527Z,2.07
2022-10-21T11:38:52.116Z,0.50
2022-10-21T11:41:03.400Z,2.33
2022-10-21T11:43:19.794Z,1.30
2022-10-21T11:45:49.427Z,2.13
2022-10-21T11:47:59.349Z,2.83
2022-10-21T11:50:13.613Z,3.40
2022-10-21T11:52:30.521Z,1.27
2022-10-21T11:55:05.704Z,2.00
2022-10-21T11:57:18.112Z,2.57
2022-10-21T11:59:37.015Z,2.10
2022-10-21T12:01:48.671Z,2.50
2022-10-21T12:04:13.256Z,1.83
2022-10-21T12:06:29.141Z,3.07
2022-10-21T12:08:41.244Z,3.30
2022-10-21T12:10:52.474Z,1.27
2022-10-21T12:12:57.295Z,1.17
2022-10-21T12:15:02.685Z,2.20
2022-10-21T12:17:11.672Z,1.13
2022-10-21T12:19:15.579Z,1.57
2022-10-21T12:21:26.282Z,3.77
2022-10-21T12:23:32.540Z,1.40
2022-10-21T12:25:42.595Z,1.97
2022-10-21T12:27:50.485Z,4.17
2022-10-21T12:30:26.528Z,0.73
2022-10-21T12:32:38.561Z,1.50
2022-10-21T12:34:41.530Z,3.67
2022-10-21T12:36:49.440Z,1.93
2022-10-21T12:38:53.921Z,3.07
2022-10-21T12:41:22.169Z,2.50
2022-10-21T12:43:28.759Z,2.63
2022-10-21T12:45:33.789Z,3.53
2022-10-21T12:47:44.569Z,3.57
2022-10-21T12:49:47.785Z,4.23
2022-10-21T12:51:57.137Z,1.07
2022-10-21T12:54:08.978Z,1.70
2022-10-21T12:56:12.733Z,3.63
2022-10-21T12:58:27.059Z,1.47
2022-10-21T13:00:56.573Z,2.17
2022-10-21T13:03:02.654Z,2.47
2022-10-21T13:05:05.382Z,1.00
2022-10-21T13:07:29.199Z,2.80
2022-10-21T13:09:38.567Z,1.60
2022-10-21T13:11:41.696Z,2.47
2022-10-21T13:13:45.648Z,1.83
2022-10-21T13:15:48.731Z,3.77
2022-10-21T13:17:53.639Z,4.60
2022-10-21T13:19:57.467Z,9.33
2022-10-21T13:22:10.753Z,4.03
2022-10-21T13:24:22.207Z,4.37
2022-10-21T13:26:27.661Z,6.47
2022-10-21T13:28:32.050Z,2.30
2022-10-21T13:30:37.237Z,3.07
2022-10-21T13:32:41.690Z,1.83
2022-10-21T13:35:00.362Z,2.70
2022-10-21T13:37:13.660Z,1.20
2022-10-21T13:39:31.107Z,2.30
2022-10-21T13:41:34.200Z,1.53
2022-10-21T13:43:40.484Z,1.93
2022-10-21T13:45:49.442Z,2.60
2022-10-21T13:48:03.659Z,1.97
2022-10-21T13:50:17.018Z,6.73
2022-10-21T13:52:19.867Z,2.57
2022-10-21T13:54:22.629Z,3.13
2022-10-21T13:56:29.701Z,2.37
2022-10-21T13:58:38.828Z,2.30
2022-10-21T14:00:41.833Z,1.83
2022-10-21T14:02:49.749Z,1.20
2022-10-21T14:04:53.070Z,1.77
2022-10-21T14:06:58.418Z,1.07
2022-10-21T14:09:04.254Z,0.97
2022-10-21T14:11:15.520Z,1.90
2022-10-21T14:13:23.448Z,2.50
2022-10-21T14:15:34.359Z,1.87
2022-10-21T14:17:43.336Z,2.57
2022-10-21T14:19:50.323Z,2.73
2022-10-21T14:21:55.018Z,2.93
2022-10-21T14:23:58.390Z,2.07
2022-10-21T14:26:06.517Z,2.07
2022-10-21T14:28:14.003Z,2.07
2022-10-21T14:30:21.956Z,5.53
2022-10-21T14:32:27.453Z,6.30
2022-10-21T14:34:33.107Z,1.77
2022-10-21T14:36:35.959Z,1.70
2022-10-21T14:38:42.402Z,2.70
2022-10-21T14:40:45.197Z,2.27
2022-10-21T14:42:53.155Z,3.60
2022-10-21T14:45:03.714Z,2.27
2022-10-21T14:47:07.858Z,1.67
2022-10-21T14:49:22.050Z,2.07
2022-10-21T14:51:25.197Z,3.33
2022-10-21T14:53:29.677Z,1.60
2022-10-21T14:55:32.566Z,2.10
2022-10-21T14:57:40.502Z,2.03
2022-10-21T14:59:44.664Z,8.17
2022-10-21T15:01:47.886Z,3.10
2022-10-21T15:03:54.090Z,2.20
2022-10-21T15:06:10.069Z,2.67
2022-10-21T15:08:32.365Z,4.63
2022-10-21T15:10:35.451Z,1.57
2022-10-21T15:12:42.395Z,3.13
2022-10-21T15:14:45.374Z,1.60
2022-10-21T15:16:51.611Z,2.47
2022-10-21T15:18:56.242Z,1.67
2022-10-21T15:21:02.563Z,7.77
2022-10-21T15:23:05.469Z,2.43
2022-10-21T15:25:14.890Z,4.10
2022-10-21T15:27:21.158Z,4.17
2022-10-21T15:29:28.985Z,3.63
2022-10-21T15:31:32.105Z,3.20
2022-10-21T15:33:34.891Z,3.17
2022-10-21T15:35:39.185Z,3.90
2022-10-21T15:37:42.231Z,2.57
2022-10-21T15:39:45.642Z,6.97
2022-10-21T15:41:53.708Z,3.67
2022-10-21T15:44:00.610Z,2.53
2022-10-21T15:46:03.345Z,3.07
2022-10-21T15:48:10.475Z,4.90
2022-10-21T15:50:16.859Z,6.03
2022-10-21T15:52:25.241Z,2.27
2022-10-21T15:54:28.189Z,3.27
2022-10-21T15:56:31.158Z,3.00
2022-10-21T15:58:35.048Z,1.80
2022-10-21T16:00:40.769Z,3.83
2022-10-21T16:02:43.906Z,2.30
2022-10-21T16:04:47.722Z,1.80
2022-10-21T16:06:52.146Z,4.47
2022-10-21T16:08:56.373Z,5.23
2022-10-21T16:10:59.424Z,2.10
2022-10-21T16:13:02.624Z,1.90
2022-10-21T16:15:05.816Z,6.93
2022-10-21T16:17:12.634Z,3.43
2022-10-21T16:19:16.754Z,6.40
2022-10-21T16:21:21.213Z,9.87
2022-10-21T16:23:23.977Z,3.17
2022-10-21T16:25:28.201Z,3.93
2022-10-21T16:27:43.740Z,2.27
2022-10-21T16:29:53.819Z,7.17
2022-10-21T16:31:57.113Z,3.80
2022-10-21T16:34:00.017Z,3.03
2022-10-21T16:36:04.501Z,4.17
2022-10-21T16:38:07.297Z,4.93
2022-10-21T16:40:19.749Z,3.30
2022-10-21T16:42:24.310Z,2.57
2022-10-21T16:44:27.132Z,3.13
2022-10-21T16:46:33.397Z,1.90
2022-10-21T16:48:36.118Z,2.10
2022-10-21T16:50:44.565Z,2.47
2022-10-21T16:52:47.625Z,1.80
2022-10-21T16:54:50.919Z,2.13
2022-10-21T16:56:55.304Z,2.00
2022-10-21T16:58:59.787Z,1.60
2022-10-21T17:01:04.177Z,2.77
2022-10-21T17:03:06.905Z,3.50
2022-10-21T17:05:13.313Z,4.20
2022-10-21T17:07:15.995Z,4.10
2022-10-21T17:09:19.373Z,5.20
2022-10-21T17:11:25.236Z,3.60
2022-10-21T17:13:28.132Z,1.90
2022-10-21T17:15:32.303Z,3.23
2022-10-21T17:17:36.595Z,3.53
2022-10-21T17:19:39.602Z,3.30
2022-10-21T17:21:42.372Z,9.07
2022-10-21T17:23:45.102Z,3.67
2022-10-21T17:25:47.915Z,1.87
2022-10-21T17:27:50.781Z,3.20
2022-10-21T17:29:53.656Z,2.93
2022-10-21T17:31:57.828Z,3.93
2022-10-21T17:34:06.377Z,2.20
2022-10-21T17:36:09.234Z,2.87
2022-10-21T17:38:11.967Z,2.03
2022-10-21T17:40:19.590Z,3.67
2022-10-21T17:42:22.322Z,4.23
2022-10-21T17:44:25.112Z,2.80
2022-10-21T17:46:27.892Z,4.53
2022-10-21T17:48:32.079Z,1.57
2022-10-21T17:50:36.356Z,3.37
2022-10-21T17:52:41.217Z,3.70
2022-10-21T17:54:44.230Z,2.20
2022-10-21T17:56:46.987Z,3.13
2022-10-21T17:58:51.858Z,2.00
2022-10-21T18:00:56.516Z,2.60
2022-10-21T18:02:59.250Z,2.53
2022-10-21T18:05:03.431Z,2.87
2022-10-21T18:07:09.357Z,5.07
2022-10-21T18:09:13.292Z,4.50
2022-10-21T18:11:21.010Z,10.17
2022-10-21T18:13:24.676Z,7.10
2022-10-21T18:15:28.243Z,9.53
2022-10-21T18:17:30.998Z,8.93
2022-10-21T18:19:34.566Z,5.70
2022-10-21T18:21:38.778Z,5.10
2022-10-21T18:23:44.233Z,6.77
2022-10-21T18:25:47.041Z,4.90
2022-10-21T18:27:49.773Z,7.27
2022-10-21T18:29:52.481Z,5.00
2022-10-21T18:31:56.364Z,6.50
2022-10-21T18:34:00.969Z,7.63
2022-10-21T18:36:11.332Z,15.33
2022-10-21T18:38:15.373Z,10.77
2022-10-21T18:40:18.173Z,8.80
2022-10-21T18:42:20.904Z,6.17
2022-10-21T18:44:23.606Z,8.50
2022-10-21T18:46:26.306Z,9.37
2022-10-21T18:48:29.033Z,7.27
2022-10-21T18:50:31.812Z,7.13
2022-10-21T18:52:34.472Z,7.07
2022-10-21T18:54:38.632Z,4.17
2022-10-21T18:56:41.306Z,8.23
2022-10-21T18:58:44.571Z,8.17
2022-10-21T19:00:47.264Z,3.13
2022-10-21T19:02:49.986Z,3.77
2022-10-21T19:04:54.166Z,4.20
2022-10-21T19:06:58.794Z,3.77
2022-10-21T19:09:02.313Z,4.33
2022-10-21T19:11:06.585Z,4.43
2022-10-21T19:13:09.248Z,3.43
2022-10-21T19:15:12.335Z,3.80
2022-10-21T19:17:15.147Z,3.73
2022-10-21T19:19:18.201Z,4.43
2022-10-21T19:21:21.720Z,4.63
2022-10-21T19:23:24.338Z,3.53
2022-10-21T19:25:27.076Z,5.97
2022-10-21T19:27:31.110Z,3.27
2022-10-21T19:29:33.764Z,5.30
2022-10-21T19:31:38.531Z,6.63
2022-10-21T19:33:42.023Z,4.50
2022-10-21T19:35:44.695Z,5.03
2022-10-21T19:37:47.338Z,5.77
2022-10-21T19:39:50.265Z,7.40
2022-10-21T19:41:52.934Z,5.60
2022-10-21T19:43:59.027Z,5.03
2022-10-21T19:46:03.176Z,4.80
2022-10-21T19:48:07.065Z,5.93
2022-10-21T19:52:17.990Z,5.53
2022-10-21T19:54:20.645Z,3.60
2022-10-21T19:56:26.950Z,6.03
2022-10-21T19:58:29.772Z,7.03
2022-10-21T20:00:33.977Z,4.87
2022-10-21T20:02:36.757Z,5.50
2022-10-21T20:04:39.821Z,5.13
2022-10-21T20:06:42.615Z,4.03
2022-10-21T20:08:46.543Z,7.23
2022-10-21T20:10:59.167Z,5.63
2022-10-21T20:13:01.901Z,3.67
2022-10-21T20:15:04.954Z,5.90
2022-10-21T20:17:09.270Z,3.77
2022-10-21T20:19:13.198Z,5.37
2022-10-21T20:21:16.265Z,5.23
2022-10-21T20:23:19.023Z,5.10
2022-10-21T20:25:21.689Z,9.07
2022-10-21T20:27:24.389Z,19.47
2022-10-21T20:29:27.111Z,13.93
2022-10-21T20:31:30.305Z,7.20
2022-10-21T20:33:36.732Z,6.33
2022-10-21T20:35:42.483Z,6.03
2022-10-21T20:37:45.126Z,6.40
2022-10-21T20:39:47.892Z,4.90
2022-10-21T20:41:50.619Z,3.93
2022-10-21T20:43:54.421Z,5.67
2022-10-21T20:45:57.203Z,7.47
2022-10-21T20:47:59.918Z,6.40
2022-10-21T20:50:04.310Z,3.33
2022-10-21T20:52:07.094Z,3.33
2022-10-21T20:54:12.968Z,4.20
2022-10-21T20:56:15.954Z,4.50
2022-10-21T20:58:18.783Z,4.73
2022-10-21T21:00:21.827Z,4.17
2022-10-21T21:02:24.506Z,4.67
2022-10-21T21:04:27.313Z,3.97
2022-10-21T21:06:32.040Z,7.97
2022-10-21T21:08:35.948Z,4.27
2022-10-21T21:10:39.108Z,3.53
2022-10-21T21:12:42.434Z,3.77
2022-10-21T21:14:45.424Z,4.43
2022-10-21T21:16:48.136Z,5.00
2022-10-21T21:18:53.452Z,8.07
2022-10-21T21:20:56.280Z,5.63
2022-10-21T21:23:00.390Z,2.53
2022-10-21T21:25:03.342Z,3.80
2022-10-21T21:27:06.379Z,3.07
2022-10-21T21:29:10.229Z,2.50
2022-10-21T21:31:14.561Z,4.87
2022-10-21T21:33:17.326Z,3.23
2022-10-21T21:35:20.114Z,1.33
2022-10-21T21:37:23.411Z,2.03
2022-10-21T21:39:27.498Z,1.80
2022-10-21T21:41:30.376Z,1.97
2022-10-21T21:43:33.629Z,1.03
2022-10-21T21:45:36.412Z,0.77
2022-10-21T21:47:39.146Z,0.90
2022-10-21T21:49:41.874Z,1.37
2022-10-21T21:51:44.597Z,0.90
2022-10-21T21:53:48.258Z,1.13
2022-10-21T21:55:52.295Z,1.93
2022-10-21T21:57:55.095Z,1.63
2022-10-21T21:59:58.382Z,1.37
2022-10-21T22:02:03.383Z,0.60
2022-10-21T22:04:06.185Z,1.13
2022-10-21T22:06:09.795Z,0.73
2022-10-21T22:08:12.671Z,1.07
2022-10-21T22:10:16.123Z,0.30
2022-10-21T22:12:23.069Z,2.40
2022-10-21T22:14:25.998Z,1.80
2022-10-21T22:16:30.873Z,0.93
2022-10-21T22:18:33.589Z,0.70
2022-10-21T22:20:40.268Z,1.63
2022-10-21T22:22:43.018Z,1.20
2022-10-21T22:24:46.321Z,2.73
2022-10-21T22:26:49.551Z,0.97
2022-10-21T22:28:53.717Z,3.50
2022-10-21T22:30:58.587Z,0.43
2022-10-21T22:33:01.330Z,0.70
2022-10-21T22:35:05.352Z,0.80
2022-10-21T22:37:08.051Z,1.20
2022-10-21T22:39:10.972Z,1.27
2022-10-21T22:41:14.276Z,2.93
2022-10-21T22:43:17.037Z,1.53
2022-10-21T22:45:21.256Z,5.13
2022-10-21T22:47:24.520Z,5.67
2022-10-21T22:49:27.332Z,5.57
2022-10-21T22:51:30.090Z,5.50
2022-10-21T22:53:32.848Z,1.87
2022-10-21T22:55:35.570Z,1.33
2022-10-21T22:57:38.343Z,6.07
2022-10-21T22:59:42.984Z,1.88
2022-10-21T23:01:48.231Z,1.40
2022-10-21T23:03:51.178Z,1.60
2022-10-21T23:05:54.046Z,4.70
2022-10-21T23:07:57.281Z,2.10
2022-10-21T23:10:01.252Z,1.17
2022-10-21T23:12:04.136Z,5.07
2022-10-21T23:14:08.903Z,2.50
2022-10-21T23:16:11.764Z,2.77
2022-10-21T23:18:15.943Z,1.33
2022-10-21T23:20:18.822Z,1.50
2022-10-21T23:22:21.606Z,3.50
2022-10-21T23:24:24.553Z,5.87
2022-10-21T23:26:27.343Z,3.40
2022-10-21T23:28:30.618Z,2.07
2022-10-21T23:30:33.362Z,1.23
2022-10-21T23:32:36.155Z,2.30
2022-10-21T23:34:40.610Z,2.40
2022-10-21T23:36:43.405Z,2.78
2022-10-21T23:38:46.217Z,2.87
2022-10-21T23:40:49.478Z,0.60
2022-10-21T23:42:52.164Z,2.25
2022-10-21T23:44:54.899Z,1.53
2022-10-21T23:46:57.843Z,2.22
2022-10-21T23:49:00.563Z,1.53
2022-10-21T23:51:05.270Z,4.00
2022-10-21T23:53:08.006Z,2.25
2022-10-21T23:55:11.292Z,1.67
2022-10-21T23:57:14.072Z,1.10
2022-10-21T23:59:16.854Z,1.67
